createdAt,value
2023-03-30T00:01:15.109Z,13.80
2023-03-30T00:03:44.904Z,13.60
2023-03-30T00:06:23.590Z,13.60
2023-03-30T00:08:53.746Z,13.60
2023-03-30T00:11:23.046Z,13.50
2023-03-30T00:13:50.781Z,13.60
2023-03-30T00:16:18.754Z,13.60
2023-03-30T00:18:45.779Z,13.50
2023-03-30T00:21:12.721Z,13.50
2023-03-30T00:23:39.944Z,13.50
2023-03-30T00:26:07.687Z,13.50
2023-03-30T00:28:34.840Z,13.50
2023-03-30T00:31:02.230Z,13.70
2023-03-30T00:33:44.092Z,13.50
2023-03-30T00:36:13.647Z,13.50
2023-03-30T00:38:41.030Z,13.40
2023-03-30T00:41:09.069Z,13.40
2023-03-30T00:43:55.087Z,13.40
2023-03-30T00:46:23.556Z,13.30
2023-03-30T00:48:51.359Z,13.30
2023-03-30T00:51:19.329Z,13.30
2023-03-30T00:53:49.857Z,13.20
2023-03-30T00:56:22.968Z,13.20
2023-03-30T00:58:50.822Z,13.20
2023-03-30T01:01:25.644Z,13.10
2023-03-30T01:03:53.895Z,13.10
2023-03-30T01:06:24.322Z,12.90
2023-03-30T01:08:53.370Z,13.10
2023-03-30T01:11:21.582Z,13.10
2023-03-30T01:13:57.496Z,13.00
2023-03-30T01:16:52.769Z,13.00
2023-03-30T01:19:38.963Z,13.00
2023-03-30T01:22:25.145Z,13.00
2023-03-30T01:25:20.580Z,13.00
2023-03-30T01:28:13.975Z,13.00
2023-03-30T01:31:10.000Z,12.90
2023-03-30T01:34:11.042Z,12.90
2023-03-30T01:37:17.499Z,12.90
2023-03-30T01:40:14.834Z,12.90
2023-03-30T01:42:57.006Z,12.90
2023-03-30T01:45:44.976Z,12.90
2023-03-30T01:48:36.130Z,12.90
2023-03-30T01:51:08.754Z,12.80
2023-03-30T01:54:00.407Z,13.10
2023-03-30T01:56:39.339Z,12.80
2023-03-30T01:59:26.294Z,12.90
2023-03-30T02:02:00.596Z,12.80
2023-03-30T02:04:31.865Z,12.80
2023-03-30T02:07:15.590Z,12.80
2023-03-30T02:09:45.454Z,12.80
2023-03-30T02:12:13.218Z,12.80
2023-03-30T02:14:42.398Z,12.80
2023-03-30T02:17:17.222Z,12.80
2023-03-30T02:19:48.322Z,12.80
2023-03-30T02:22:19.550Z,12.80
2023-03-30T02:24:49.472Z,12.80
2023-03-30T02:27:18.197Z,12.80
2023-03-30T02:29:46.935Z,12.80
2023-03-30T02:32:25.315Z,12.80
2023-03-30T02:35:18.975Z,12.80
2023-03-30T02:38:17.174Z,12.80
2023-03-30T02:41:22.457Z,12.80
2023-03-30T02:44:32.835Z,12.80
2023-03-30T02:47:12.850Z,12.80
2023-03-30T02:50:00.094Z,12.80
2023-03-30T02:52:36.895Z,12.80
2023-03-30T02:55:18.945Z,12.80
2023-03-30T02:58:20.016Z,12.80
2023-03-30T03:01:15.510Z,12.70
2023-03-30T03:03:58.149Z,12.80
2023-03-30T03:06:27.733Z,12.80
2023-03-30T03:08:56.688Z,12.80
2023-03-30T03:11:28.711Z,12.80
2023-03-30T03:13:56.050Z,12.80
2023-03-30T03:16:24.284Z,12.80
2023-03-30T03:19:10.615Z,12.80
2023-03-30T03:21:39.363Z,12.80
2023-03-30T03:24:07.252Z,12.80
2023-03-30T03:26:54.646Z,12.80
2023-03-30T03:29:23.238Z,12.90
2023-03-30T03:31:50.161Z,12.80
2023-03-30T03:34:20.167Z,12.80
2023-03-30T03:37:05.627Z,12.80
2023-03-30T03:39:35.663Z,12.80
2023-03-30T03:42:07.812Z,12.80
2023-03-30T03:44:40.570Z,12.80
2023-03-30T03:47:07.692Z,12.80
2023-03-30T03:49:34.667Z,12.80
2023-03-30T03:52:01.819Z,12.80
2023-03-30T03:54:28.800Z,12.90
2023-03-30T03:56:55.890Z,12.80
2023-03-30T03:59:22.900Z,12.90
2023-03-30T04:01:50.301Z,12.90
2023-03-30T04:04:17.408Z,12.90
2023-03-30T04:06:45.409Z,12.90
2023-03-30T04:09:12.656Z,12.90
2023-03-30T04:12:06.653Z,12.90
2023-03-30T04:14:41.795Z,12.90
2023-03-30T04:17:23.898Z,12.90
2023-03-30T04:20:12.100Z,12.90
2023-03-30T04:22:55.171Z,12.90
2023-03-30T04:25:58.406Z,12.90
2023-03-30T04:28:57.672Z,12.90
2023-03-30T04:31:46.913Z,12.90
2023-03-30T04:34:30.984Z,12.90
2023-03-30T04:37:30.603Z,12.90
2023-03-30T04:40:27.175Z,12.90
2023-03-30T04:42:54.899Z,12.90
2023-03-30T04:45:43.566Z,12.90
2023-03-30T04:48:48.863Z,12.90
2023-03-30T04:51:27.185Z,12.90
2023-03-30T04:54:11.695Z,12.90
2023-03-30T04:57:07.871Z,13.10
2023-03-30T04:59:44.819Z,12.90
2023-03-30T05:02:40.983Z,12.90
2023-03-30T05:05:22.902Z,12.90
2023-03-30T05:08:08.263Z,12.90
2023-03-30T05:11:05.104Z,12.90
2023-03-30T05:14:00.500Z,13.00
2023-03-30T05:16:58.716Z,13.00
2023-03-30T05:19:46.635Z,12.90
2023-03-30T05:22:32.503Z,12.90
2023-03-30T05:25:17.986Z,13.20
2023-03-30T05:28:01.262Z,13.00
2023-03-30T05:30:46.936Z,13.00
2023-03-30T05:33:32.578Z,13.00
2023-03-30T05:36:22.164Z,13.10
2023-03-30T05:39:06.550Z,13.10
2023-03-30T05:42:11.589Z,13.10
2023-03-30T05:45:11.093Z,13.10
2023-03-30T05:47:58.114Z,13.20
2023-03-30T05:50:44.122Z,13.20
2023-03-30T05:53:20.034Z,13.20
2023-03-30T05:56:19.541Z,13.30
2023-03-30T05:59:13.091Z,13.30
2023-03-30T06:01:52.969Z,13.40
2023-03-30T06:04:20.097Z,13.40
2023-03-30T06:06:47.227Z,13.40
2023-03-30T06:09:14.234Z,13.40
2023-03-30T06:12:06.745Z,13.40
2023-03-30T06:14:35.181Z,13.50
2023-03-30T06:17:22.846Z,13.50
2023-03-30T06:19:49.920Z,13.50
2023-03-30T06:22:17.083Z,13.60
2023-03-30T06:25:10.631Z,13.60
2023-03-30T06:27:37.828Z,13.70
2023-03-30T06:30:05.746Z,13.70
2023-03-30T06:32:33.134Z,13.70
2023-03-30T06:35:18.684Z,13.80
2023-03-30T06:37:45.752Z,13.80
2023-03-30T06:40:13.902Z,13.90
2023-03-30T06:42:44.217Z,14.00
2023-03-30T06:45:31.501Z,14.10
2023-03-30T06:47:58.732Z,14.30
2023-03-30T06:50:26.489Z,14.20
2023-03-30T06:52:59.908Z,14.30
2023-03-30T06:55:33.007Z,14.30
2023-03-30T06:58:00.169Z,14.40
2023-03-30T07:00:27.888Z,14.50
2023-03-30T07:03:13.830Z,14.50
2023-03-30T07:05:51.185Z,14.60
2023-03-30T07:08:35.666Z,14.60
2023-03-30T07:11:07.080Z,14.60
2023-03-30T07:13:37.111Z,14.70
2023-03-30T07:16:04.621Z,14.60
2023-03-30T07:18:32.493Z,14.70
2023-03-30T07:21:00.674Z,14.80
2023-03-30T07:23:36.902Z,14.80
2023-03-30T07:26:05.078Z,14.90
2023-03-30T07:28:41.424Z,15.10
2023-03-30T07:31:13.618Z,15.30
2023-03-30T07:33:42.124Z,15.60
2023-03-30T07:36:13.197Z,15.80
2023-03-30T07:38:40.461Z,16.10
2023-03-30T07:41:13.070Z,16.40
2023-03-30T07:43:40.734Z,16.60
2023-03-30T07:46:10.143Z,16.90
2023-03-30T07:48:42.134Z,17.20
2023-03-30T07:51:12.850Z,17.50
2023-03-30T07:53:48.981Z,17.80
2023-03-30T07:56:23.825Z,18.00
2023-03-30T07:58:59.603Z,18.30
2023-03-30T08:01:33.908Z,18.50
2023-03-30T08:04:07.379Z,18.70
2023-03-30T08:06:36.291Z,18.90
2023-03-30T08:09:04.524Z,19.10
2023-03-30T08:11:32.954Z,19.20
2023-03-30T08:14:00.043Z,19.40
2023-03-30T08:16:27.079Z,19.90
2023-03-30T08:18:54.886Z,19.90
2023-03-30T08:21:25.649Z,20.20
2023-03-30T08:23:55.003Z,20.50
2023-03-30T08:26:22.208Z,20.80
2023-03-30T08:28:50.032Z,21.10
2023-03-30T08:31:18.219Z,21.40
2023-03-30T08:33:45.485Z,21.80
2023-03-30T08:36:15.963Z,22.10
2023-03-30T08:38:46.072Z,22.50
2023-03-30T08:41:29.516Z,22.80
2023-03-30T08:44:01.348Z,23.40
2023-03-30T08:46:30.330Z,23.60
2023-03-30T08:49:01.387Z,23.90
2023-03-30T08:51:35.602Z,24.30
2023-03-30T08:54:06.564Z,24.60
2023-03-30T08:57:14.513Z,24.90
2023-03-30T09:00:07.287Z,25.20
2023-03-30T09:02:47.502Z,25.60
2023-03-30T09:05:34.875Z,25.80
2023-03-30T09:08:24.568Z,25.90
2023-03-30T09:11:00.813Z,25.80
2023-03-30T09:13:33.862Z,25.80
2023-03-30T09:16:33.742Z,25.60
2023-03-30T09:19:03.362Z,25.40
2023-03-30T09:21:32.714Z,25.20
2023-03-30T09:24:11.804Z,25.00
2023-03-30T09:27:00.409Z,24.70
2023-03-30T09:29:34.208Z,24.50
2023-03-30T09:32:06.531Z,24.30
2023-03-30T09:35:26.079Z,24.20
2023-03-30T09:37:53.420Z,24.00
2023-03-30T09:41:04.799Z,23.80
2023-03-30T09:43:44.282Z,23.70
2023-03-30T09:46:12.669Z,23.50
2023-03-30T09:48:48.717Z,23.50
2023-03-30T09:51:24.102Z,23.00
2023-03-30T09:54:01.670Z,23.00
2023-03-30T09:56:34.747Z,22.80
2023-03-30T09:59:34.840Z,22.50
2023-03-30T10:02:16.693Z,22.30
2023-03-30T10:04:53.063Z,22.10
2023-03-30T10:07:28.486Z,22.00
2023-03-30T10:09:58.381Z,22.10
2023-03-30T10:12:27.840Z,21.80
2023-03-30T10:15:00.988Z,21.60
2023-03-30T10:17:29.762Z,21.60
2023-03-30T10:20:36.307Z,21.40
2023-03-30T10:23:17.080Z,21.20
2023-03-30T10:25:50.165Z,21.10
2023-03-30T10:28:27.869Z,21.00
2023-03-30T10:31:06.865Z,20.90
2023-03-30T10:33:41.135Z,20.90
2023-03-30T10:36:09.605Z,20.70
2023-03-30T10:38:40.675Z,20.50
2023-03-30T10:41:23.061Z,20.50
2023-03-30T10:43:51.653Z,20.40
2023-03-30T10:46:24.830Z,20.30
2023-03-30T10:49:30.619Z,20.30
2023-03-30T10:53:07.596Z,20.20
2023-03-30T10:56:09.618Z,20.20
2023-03-30T10:59:32.164Z,20.30
2023-03-30T11:02:33.946Z,20.30
2023-03-30T11:05:13.433Z,20.50
2023-03-30T11:07:48.531Z,20.60
2023-03-30T11:10:30.518Z,20.70
2023-03-30T11:13:27.893Z,20.90
2023-03-30T11:16:03.668Z,21.00
2023-03-30T11:18:57.551Z,21.10
2023-03-30T11:21:45.201Z,21.20
2023-03-30T11:24:21.164Z,21.20
2023-03-30T11:27:13.168Z,21.20
2023-03-30T11:29:49.709Z,21.20
2023-03-30T11:32:57.497Z,21.20
2023-03-30T11:35:42.989Z,21.30
2023-03-30T11:38:29.267Z,21.30
2023-03-30T11:41:12.950Z,21.30
2023-03-30T11:43:40.055Z,21.30
2023-03-30T11:46:18.052Z,21.40
2023-03-30T11:48:57.836Z,21.30
2023-03-30T11:51:50.032Z,21.40
2023-03-30T11:55:01.779Z,21.60
2023-03-30T11:57:32.070Z,22.00
2023-03-30T12:00:14.585Z,22.40
2023-03-30T12:03:13.272Z,22.90
2023-03-30T12:05:48.589Z,23.30
2023-03-30T12:08:46.267Z,23.80
2023-03-30T12:11:41.602Z,24.40
2023-03-30T12:15:01.657Z,24.90
2023-03-30T12:17:50.639Z,25.50
2023-03-30T12:21:01.668Z,26.00
2023-03-30T12:23:50.716Z,26.50
2023-03-30T12:26:28.886Z,27.20
2023-03-30T12:29:36.095Z,27.80
2023-03-30T12:32:03.609Z,28.20
2023-03-30T12:34:41.732Z,28.70
2023-03-30T12:37:33.742Z,29.10
2023-03-30T12:40:22.695Z,29.60
2023-03-30T12:43:09.326Z,30.10
2023-03-30T12:46:07.773Z,30.20
2023-03-30T12:48:48.982Z,30.30
2023-03-30T12:51:49.220Z,30.50
2023-03-30T12:54:49.306Z,30.60
2023-03-30T12:57:53.944Z,30.60
2023-03-30T13:00:31.688Z,30.70
2023-03-30T13:03:55.775Z,30.60
2023-03-30T13:06:31.112Z,30.40
2023-03-30T13:09:12.944Z,30.00
2023-03-30T13:12:20.689Z,29.70
2023-03-30T13:14:47.660Z,29.40
2023-03-30T13:17:21.382Z,29.30
2023-03-30T13:20:29.244Z,29.10
2023-03-30T13:23:25.501Z,28.80
2023-03-30T13:26:06.319Z,28.60
2023-03-30T13:28:55.166Z,28.40
2023-03-30T13:31:55.813Z,28.20
2023-03-30T13:34:35.218Z,28.00
2023-03-30T13:37:51.557Z,27.80
2023-03-30T13:40:38.622Z,27.40
2023-03-30T13:44:09.775Z,27.10
2023-03-30T13:46:53.073Z,26.90
2023-03-30T13:49:33.133Z,26.70
2023-03-30T13:52:11.185Z,26.40
2023-03-30T13:54:41.260Z,26.20
2023-03-30T13:57:25.629Z,25.90
2023-03-30T13:59:59.706Z,25.60
2023-03-30T14:02:31.001Z,25.20
2023-03-30T14:05:20.625Z,24.90
2023-03-30T14:07:48.945Z,24.60
2023-03-30T14:10:22.094Z,24.30
2023-03-30T14:12:54.464Z,23.90
2023-03-30T14:15:26.729Z,23.50
2023-03-30T14:17:58.399Z,22.90
2023-03-30T14:20:44.592Z,22.40
2023-03-30T14:23:33.973Z,21.70
2023-03-30T14:26:06.625Z,21.10
2023-03-30T14:28:36.173Z,20.50
2023-03-30T14:31:13.665Z,20.00
2023-03-30T14:33:41.079Z,19.50
2023-03-30T14:36:11.978Z,19.10
2023-03-30T14:38:42.944Z,18.80
2023-03-30T14:41:27.678Z,18.10
2023-03-30T14:44:03.613Z,18.10
2023-03-30T14:46:47.473Z,17.80
2023-03-30T14:49:23.795Z,17.60
2023-03-30T14:52:02.396Z,17.50
2023-03-30T14:54:31.022Z,17.20
2023-03-30T14:57:03.984Z,17.00
2023-03-30T14:59:37.653Z,16.90
2023-03-30T15:02:24.436Z,16.80
2023-03-30T15:04:52.030Z,16.70
2023-03-30T15:07:23.131Z,16.60
2023-03-30T15:10:01.112Z,16.50
2023-03-30T15:12:41.279Z,16.60
2023-03-30T15:15:12.303Z,16.30
2023-03-30T15:17:46.347Z,16.20
2023-03-30T15:20:14.637Z,16.10
2023-03-30T15:22:47.708Z,15.90
2023-03-30T15:25:19.603Z,15.90
2023-03-30T15:27:57.613Z,15.90
2023-03-30T15:30:29.977Z,15.80
2023-03-30T15:32:58.012Z,15.80
2023-03-30T15:35:32.254Z,15.70
2023-03-30T15:38:17.059Z,15.70
2023-03-30T15:40:47.521Z,15.70
2023-03-30T15:44:16.629Z,15.70
2023-03-30T15:46:44.028Z,15.60
2023-03-30T15:49:16.553Z,15.60
2023-03-30T15:51:52.142Z,15.60
2023-03-30T15:54:41.597Z,15.60
2023-03-30T15:57:13.199Z,15.50
2023-03-30T15:59:52.791Z,15.50
2023-03-30T16:02:24.611Z,15.50
2023-03-30T16:04:51.661Z,15.50
2023-03-30T16:07:24.954Z,15.50
2023-03-30T16:09:52.668Z,15.40
2023-03-30T16:12:29.498Z,15.60
2023-03-30T16:14:57.968Z,15.50
2023-03-30T16:17:25.957Z,15.50
2023-03-30T16:19:53.006Z,15.50
2023-03-30T16:22:19.960Z,15.50
2023-03-30T16:24:48.280Z,15.40
2023-03-30T16:27:15.472Z,15.80
2023-03-30T16:29:42.453Z,15.40
2023-03-30T16:32:09.441Z,15.50
2023-03-30T16:34:36.873Z,15.60
2023-03-30T16:37:03.959Z,15.70
2023-03-30T16:39:31.272Z,15.70
2023-03-30T16:41:58.445Z,15.70
2023-03-30T16:44:25.904Z,15.80
2023-03-30T16:46:53.005Z,15.80
2023-03-30T16:49:24.174Z,15.90
2023-03-30T16:51:54.527Z,15.90
2023-03-30T16:54:31.167Z,15.90
2023-03-30T16:57:01.074Z,15.90
2023-03-30T16:59:32.408Z,15.90
2023-03-30T17:02:00.263Z,15.90
2023-03-30T17:04:27.430Z,15.90
2023-03-30T17:06:55.150Z,16.10
2023-03-30T17:09:22.657Z,16.00
2023-03-30T17:11:50.351Z,16.10
2023-03-30T17:14:17.728Z,15.90
2023-03-30T17:16:44.792Z,15.90
2023-03-30T17:19:15.029Z,16.00
2023-03-30T17:21:45.782Z,16.00
2023-03-30T17:24:15.090Z,16.30
2023-03-30T17:26:42.813Z,16.00
2023-03-30T17:29:10.535Z,16.00
2023-03-30T17:31:38.756Z,16.00
2023-03-30T17:34:06.999Z,16.00
2023-03-30T17:36:33.996Z,16.00
2023-03-30T17:39:04.730Z,15.90
2023-03-30T17:41:33.728Z,15.90
2023-03-30T17:44:00.686Z,15.90
2023-03-30T17:46:28.234Z,15.90
2023-03-30T17:48:55.390Z,15.90
2023-03-30T17:51:22.429Z,15.80
2023-03-30T17:53:49.584Z,15.80
2023-03-30T17:56:16.557Z,15.70
2023-03-30T17:58:43.496Z,15.70
2023-03-30T18:01:12.798Z,15.60
2023-03-30T18:03:40.813Z,15.60
2023-03-30T18:06:07.986Z,15.60
2023-03-30T18:08:36.039Z,15.50
2023-03-30T18:11:04.317Z,15.40
2023-03-30T18:13:31.604Z,15.40
2023-03-30T18:16:00.501Z,15.40
2023-03-30T18:18:30.553Z,15.30
2023-03-30T18:21:03.584Z,15.30
2023-03-30T18:23:33.430Z,15.30
2023-03-30T18:26:01.556Z,15.30
2023-03-30T18:28:31.962Z,15.20
2023-03-30T18:31:00.982Z,15.20
2023-03-30T18:33:28.677Z,15.20
2023-03-30T18:36:05.481Z,15.10
2023-03-30T18:38:33.458Z,15.10
2023-03-30T18:41:01.478Z,15.00
2023-03-30T18:43:29.088Z,15.10
2023-03-30T18:46:01.542Z,15.00
2023-03-30T18:48:29.310Z,15.00
2023-03-30T18:50:57.073Z,15.00
2023-03-30T18:53:28.398Z,14.90
2023-03-30T18:56:00.212Z,14.90
2023-03-30T18:58:30.992Z,15.10
2023-03-30T19:00:58.040Z,14.90
2023-03-30T19:03:30.094Z,14.80
2023-03-30T19:05:57.511Z,14.90
2023-03-30T19:08:26.219Z,14.90
2023-03-30T19:10:57.099Z,14.90
2023-03-30T19:13:26.522Z,14.90
2023-03-30T19:15:54.338Z,14.90
2023-03-30T19:18:21.804Z,15.00
2023-03-30T19:20:50.989Z,15.00
2023-03-30T19:23:21.736Z,15.00
2023-03-30T19:25:49.114Z,15.10
2023-03-30T19:28:16.999Z,15.10
2023-03-30T19:30:44.282Z,15.10
2023-03-30T19:33:17.133Z,15.10
2023-03-30T19:35:45.723Z,15.10
2023-03-30T19:38:14.256Z,15.00
2023-03-30T19:40:42.457Z,15.20
2023-03-30T19:43:10.456Z,15.10
2023-03-30T19:45:38.199Z,15.20
2023-03-30T19:48:05.865Z,15.10
2023-03-30T19:50:33.083Z,15.40
2023-03-30T19:53:00.199Z,15.10
2023-03-30T19:55:27.891Z,15.10
2023-03-30T19:57:55.680Z,15.10
2023-03-30T20:00:23.278Z,15.10
2023-03-30T20:02:53.049Z,15.10
2023-03-30T20:05:22.399Z,15.00
2023-03-30T20:07:50.438Z,15.00
2023-03-30T20:10:26.699Z,15.00
2023-03-30T20:12:54.533Z,14.90
2023-03-30T20:15:23.376Z,14.90
2023-03-30T20:17:56.167Z,14.90
2023-03-30T20:20:25.357Z,15.00
2023-03-30T20:22:56.132Z,15.00
2023-03-30T20:25:26.899Z,14.90
2023-03-30T20:27:54.625Z,14.70
2023-03-30T20:30:22.001Z,14.60
2023-03-30T20:33:00.149Z,14.60
2023-03-30T20:35:35.056Z,14.70
2023-03-30T20:38:04.545Z,14.40
2023-03-30T20:40:32.347Z,14.40
2023-03-30T20:43:03.226Z,14.40
2023-03-30T20:45:32.734Z,14.40
2023-03-30T20:48:16.063Z,14.40
2023-03-30T20:50:43.278Z,14.40
2023-03-30T20:53:10.529Z,14.70
2023-03-30T20:55:37.571Z,14.70
2023-03-30T20:58:04.494Z,14.40
2023-03-30T21:00:31.512Z,14.40
2023-03-30T21:02:58.837Z,14.30
2023-03-30T21:05:26.028Z,14.40
2023-03-30T21:07:55.215Z,14.50
2023-03-30T21:10:22.096Z,14.30
2023-03-30T21:12:49.252Z,14.30
2023-03-30T21:15:17.078Z,14.20
2023-03-30T21:17:44.161Z,14.20
2023-03-30T21:20:12.102Z,14.20
2023-03-30T21:22:38.958Z,14.20
2023-03-30T21:25:06.560Z,14.20
2023-03-30T21:27:33.527Z,14.20
2023-03-30T21:30:00.626Z,14.10
2023-03-30T21:32:29.352Z,14.10
2023-03-30T21:34:58.312Z,14.20
2023-03-30T21:37:25.252Z,14.20
2023-03-30T21:39:52.414Z,14.20
2023-03-30T21:42:20.708Z,14.20
2023-03-30T21:44:47.829Z,14.20
2023-03-30T21:47:16.514Z,14.20
2023-03-30T21:49:43.962Z,14.20
2023-03-30T21:52:10.880Z,14.20
2023-03-30T21:54:37.891Z,14.30
2023-03-30T21:57:05.681Z,14.30
2023-03-30T21:59:32.650Z,14.30
2023-03-30T22:01:59.749Z,14.40
2023-03-30T22:04:26.869Z,14.40
2023-03-30T22:06:53.880Z,14.40
2023-03-30T22:09:20.866Z,14.40
2023-03-30T22:11:48.225Z,14.40
2023-03-30T22:14:15.349Z,14.50
2023-03-30T22:16:42.734Z,14.50
2023-03-30T22:19:09.808Z,14.50
2023-03-30T22:21:37.189Z,14.50
2023-03-30T22:24:07.109Z,14.50
2023-03-30T22:26:35.895Z,14.60
2023-03-30T22:29:04.019Z,14.60
2023-03-30T22:31:31.083Z,14.60
2023-03-30T22:33:58.048Z,14.60
2023-03-30T22:36:32.054Z,14.60
2023-03-30T22:39:01.549Z,14.60
2023-03-30T22:41:29.331Z,14.70
2023-03-30T22:43:58.285Z,14.60
2023-03-30T22:46:27.360Z,14.60
2023-03-30T22:48:57.553Z,14.60
2023-03-30T22:51:28.356Z,14.50
2023-03-30T22:54:00.004Z,14.60
2023-03-30T22:56:29.443Z,14.60
2023-03-30T22:58:58.679Z,14.60
2023-03-30T23:01:26.038Z,14.60
2023-03-30T23:03:53.367Z,14.60
2023-03-30T23:06:21.410Z,14.60
2023-03-30T23:08:49.128Z,14.60
2023-03-30T23:11:16.996Z,14.60
2023-03-30T23:13:44.022Z,14.60
2023-03-30T23:16:11.186Z,14.60
2023-03-30T23:18:38.919Z,14.60
2023-03-30T23:21:07.629Z,14.60
2023-03-30T23:23:36.147Z,14.60
2023-03-30T23:26:08.040Z,14.60
2023-03-30T23:28:37.732Z,14.60
2023-03-30T23:31:14.941Z,14.60
2023-03-30T23:33:43.167Z,14.60
2023-03-30T23:36:16.863Z,14.80
2023-03-30T23:38:44.836Z,14.60
2023-03-30T23:41:19.225Z,14.80
2023-03-30T23:43:46.535Z,14.60
2023-03-30T23:46:14.016Z,14.60
2023-03-30T23:48:41.943Z,14.70
2023-03-30T23:51:09.548Z,14.60
2023-03-30T23:53:39.964Z,14.70
2023-03-30T23:56:13.653Z,14.70
2023-03-30T23:58:41.296Z,14.70
